Aiken, SC (29803)

12:46 PM EST on February 14, 2016 (GMT -0500)
Accent Solutions (South Meadows) | | Change Station
CLOSE
Current Station
Personal Weather Station
Location: Aiken, SC
Elevation: 459 ft
Nearby Weather Stations

Elev 459 ft 33.49 °N, 81.69 °W | Updated 6 seconds ago

Clear
Clear
39.6 °F
Feels Like 40 °F
N
1.0
Wind Variable Wind from ESE
Gusts 6.0 mph

Today
High -- | Low -- °F
--% Chance of Precip.
Yesterday
High -- | Low -- °F
Precip. -- in
Pressure 30.47 in
Visibility 10.0 miles
Clouds Clear
Windchill 40 °F
Dew Point 6 °F
Humidity 24%
Rainfall 0.00 in
Snow Depth Not available.
7:12 AM 6:10 PM
Waxing Crescent, 43% visible
METAR KAIK 141715Z AUTO 07009KT 10SM CLR 01/M16 A3047 RMK AO2
Pressure 30.47 in
Visibility 10.0 miles
Clouds Clear
Windchill 40 °F
Dew Point 6 °F
Humidity 24%
Rainfall 0.00 in
Snow Depth Not available.
7:12 AM 6:10 PM
Waxing Crescent, 43% visible
METAR KAIK 141715Z AUTO 07009KT 10SM CLR 01/M16 A3047 RMK AO2

10-Day Weather Forecast

Almanac

Astronomy

Feb. 14, 2016 Rise Set
Actual Time
Civil Twilight
Nautical Twilight
Astronomical Twilight
Moon
Length of Visible Light
Length of Day
Tomorrow will be .
, % of the Moon is Illuminated

Today's Extremes

State Highs State Lows

Community

WunderPhotos

Upload Photos

1,892,860 photos uploaded!

WunderBlog® & News

Nearby

Air Quality

  Air Quality AQ Index Pollutant
Not available.

Snow Depth

Station Depth Elevation

Earthquake Activity

City Distance Mag. Time & Date
Minimum magnitude displayed is 2.5.

Coastal Water Temperatures

Place Temperature

Stations

Nearby Weather Stations

Station Location Temp. Windchill Dew Point Humidity Wind Precip. Elev Updated Type
                   

Watches & Warnings

There are currently no watches in effect.